This is the latest recevied weather packets stored in our database for station/object WX4LTG. If no packets are shown the sender has not sent any weather packets the latest 1 day(s).
| Time | Temp. | Humidity | Pressure | Rain* | Wind** | Luminosity | Snow |
|---|---|---|---|---|---|---|---|
| 1777998982 | 17.78° C | 69% | 1012.1 hPa | 0 mm | 0 m/s | 197 W/m² | - |
| 1777998680 | 18.33° C | 69% | 1012.2 hPa | 1.27 mm | 0.89 m/s, 250° | 123 W/m² | - |
| 1777998377 | 18.89° C | 64% | 1012.2 hPa | 1.27 mm | 1.34 m/s, 242° | 61 W/m² | - |
| 1777998075 | 18.89° C | 64% | 1012.1 hPa | 0 mm | 0 m/s | 50 W/m² | - |
| 1777997772 | 18.89° C | 62% | 1011.9 hPa | 0 mm | 0 m/s | 51 W/m² | - |
| 1777997469 | 18.33° C | 66% | 1011.9 hPa | 0 mm | 0 m/s | 75 W/m² | - |
| 1777997166 | 19.44° C | 59% | 1012.1 hPa | 0 mm | 2.24 m/s, 255° | 42 W/m² | - |
| 1777996864 | 19.44° C | 57% | 1011.8 hPa | 0 mm | 0.89 m/s, 256° | 47 W/m² | - |
| 1777996560 | 20° C | 54% | 1011.9 hPa | 0 mm | 0 m/s | 87 W/m² | - |
| 1777996256 | 20° C | 53% | 1011.9 hPa | 0 mm | 0.45 m/s, 216° | 138 W/m² | - |
| 1777995952 | 20° C | 53% | 1012.2 hPa | 0 mm | 0 m/s | 147 W/m² | - |
| 1777995649 | 20.56° C | 52% | 1011.9 hPa | 0 mm | 1.34 m/s, 261° | 167 W/m² | - |
| 1777995346 | 20.56° C | 53% | 1012 hPa | 0 mm | 0 m/s | 498 W/m² | - |
| 1777995043 | 20° C | 54% | 1012 hPa | 0 mm | 0 m/s | 231 W/m² | - |
| 1777994740 | 20° C | 55% | 1011.9 hPa | 0 mm | 0 m/s | 172 W/m² | - |
| 1777994436 | 20° C | 54% | 1011.6 hPa | 0 mm | 0 m/s | 163 W/m² | - |
| 1777994131 | 20° C | 56% | 1011.9 hPa | 0 mm | 0 m/s | 168 W/m² | - |
| 1777993829 | 20° C | 55% | 1011.7 hPa | 0 mm | 0 m/s | 145 W/m² | - |
| 1777993525 | 20° C | 55% | 1011.6 hPa | 0 mm | 0.89 m/s, 234° | 170 W/m² | - |
| 1777993221 | 19.44° C | 56% | 1011.6 hPa | 0 mm | 0 m/s | 183 W/m² | - |
| 1777992917 | 19.44° C | 56% | 1011.7 hPa | 0 mm | 0.45 m/s, 142° | 170 W/m² | - |
| 1777992616 | 19.44° C | 57% | 1011.7 hPa | 0 mm | 0 m/s | 132 W/m² | - |
| 1777992313 | 19.44° C | 58% | 1011.8 hPa | 0 mm | 0 m/s | 116 W/m² | - |
| 1777992010 | 18.89° C | 58% | 1011.7 hPa | 0 mm | 0 m/s | 102 W/m² | - |
| 1777991708 | 18.89° C | 59% | 1011.8 hPa | 0 mm | 0.89 m/s, 149° | 81 W/m² | - |
* Rain latest hour (hover to see other rain measurements)
** Current wind speed in m/s (hover to see current wind gust speed)